Airfield :
LOGIN :

Register | Disclaimer

   EN    FR    IT 

 










Legend :    VFR   Marginal VFR   IFR   Intensive IFR   Very Intensive IFR
Visi :
Ceiling :
>= 8 km
>= 3000ft
5 to 8 km
1000 to 3000 ft
1500m to 5 km
500 to 1000 ft
800 to 1500m
200 to 500 ft
< 800m
< 200 ft
Symbols :   Thunderstorms  Fog  Heavy snow  Heavy precipitations  Wind > 20 kt
SIGMETs :     Misc.  Thunderstorms  Icing  Turbulence  Mountain Waves  Volcanic Ashes






- Airport Elevation : 124 ft
- IATA code : RNS


LFRN - Rennes

CURRENT METAR :
  • 151330Z AUTO 19007KT 9999 OVC036 11/06 Q1004 TEMPO SHRA

EXPIRED METARs :
  • 151300Z AUTO 18006KT 150V210 9999 FEW042 BKN230 11/06 Q1004 TEMPO SHRA
  • 151230Z AUTO 18007KT CAVOK 10/06 Q1004 TEMPO SHRA
  • 151200Z AUTO 20007KT CAVOK 10/06 Q1005 TEMPO SHRA
  • 151130Z AUTO 20007KT 9999 FEW032 BKN230 09/05 Q1005 TEMPO SHRA
  • 151100Z AUTO 20007KT 170V230 CAVOK 09/05 Q1005 NOSIG
  • 151030Z AUTO 18009KT 9999 FEW001 BKN035 BKN049 09/05 Q1005 NOSIG

TAF TAF LFRN
Valid from the 15 at 12:00 until the 16 at 12:00 UTC


151100Z 1512/1612 19010KT 9999 BKN030
PROB30
TEMPO 1512/1605 5000 SHRA
PROB40
TEMPO 1600/1605 BKN010
BECMG 1605/1607 8000 RA BKN015
TEMPO 1605/1612 3000 RA BKN005
BECMG 1610/1612 12008KT
ATIS : +33 2 99 67 72 50



MET'MAP, your aeronautical weather chart ! - Copyright ORBIFLY December 2007 - Disclaimer

ORBIFLY MET'MAP TEAM :

Programming & Development : Alexandra Zaïnal
Concept & original design : Baudouin d'Aumeries
Assistance for programming : Marc-Olivier Méhu
Technical & hardware support : Manuel Goepfert

Contact : metmap@orbifly.com




SOURCES & CREDITS :

   NOAA